OIAA METAR and TAF | Updated Today

OIAA METAR

Abadan Airport

Observation time: 49 min. ago

OIAA 032100Z 28006KT CAVOK 13/04 Q1021

Need help? Read our tutorial on how to read METARs or read the parsed version below.

Abadan Airport (OIAA) METAR

  • Weather conditions on Fri, 03 Dec 2021 21:00:00 +0000 (49 min. ago):
  • Present conditions: Dry
  • Clouds: Clear skies
  • Visibility: Greater than 10 km
  • Wind: 280 degrees at 6 knots
  • Temperature: 13 celsius
  • Dew point: 4 celsius
  • Pressure: 1021 millibars
  • Remarks: None


Useful to know...

OIAA TAF

Abadan Airport

TAF OIAA 031750Z 0318/0424 28008KT 7000 NSC TEMPO 0406/0412 34016KT FEW035TCU
Observation time: 3:59 hr. ago
Need help? Read our tutorial on how to read TAFs or read the parsed version below.

Parsed version of TAF for Abadan Airport (OIAA)

  • From 03 December at 18:00 UTC, to day 04 of the month at 24:00 UTC
  • Clouds: No significant clouds are observed
  • Visibility: 7000 meters
  • Wind: 280 degrees at 8
  • Expected to arise temporarily, from 04 December at 06:00 UTC, to day 04 of the month at 12:00 UTC
  • Clouds: A few at 1067 meters, towering cumulus
  • Wind: 340 degrees at 16